createdAt,value
2023-03-02T00:00:50.312Z,979.29
2023-03-02T00:01:50.240Z,979.30
2023-03-02T00:02:50.178Z,979.27
2023-03-02T00:03:50.133Z,979.26
2023-03-02T00:04:49.973Z,979.23
2023-03-02T00:05:49.895Z,979.19
2023-03-02T00:06:49.795Z,979.17
2023-03-02T00:07:49.709Z,979.16
2023-03-02T00:08:49.621Z,979.20
2023-03-02T00:09:49.537Z,979.20
2023-03-02T00:10:49.450Z,979.20
2023-03-02T00:11:49.365Z,979.18
2023-03-02T00:12:49.276Z,979.22
2023-03-02T00:13:49.190Z,979.19
2023-03-02T00:14:49.110Z,979.17
2023-03-02T00:15:49.050Z,979.19
2023-03-02T00:16:48.930Z,979.19
2023-03-02T00:17:48.845Z,979.19
2023-03-02T00:18:48.759Z,979.15
2023-03-02T00:19:48.675Z,979.11
2023-03-02T00:20:48.594Z,979.12
2023-03-02T00:21:48.505Z,979.13
2023-03-02T00:22:48.417Z,979.10
2023-03-02T00:23:48.326Z,979.08
2023-03-02T00:24:48.240Z,979.05
2023-03-02T00:25:48.163Z,979.06
2023-03-02T00:26:48.066Z,979.04
2023-03-02T00:27:47.980Z,979.02
2023-03-02T00:28:47.910Z,979.02
2023-03-02T00:29:47.812Z,979.00
2023-03-02T00:30:47.734Z,978.99
2023-03-02T00:31:47.752Z,978.97
2023-03-02T00:32:47.561Z,978.99
2023-03-02T00:33:47.483Z,978.97
2023-03-02T00:34:47.376Z,978.99
2023-03-02T00:35:47.322Z,978.97
2023-03-02T00:36:47.207Z,979.00
2023-03-02T00:37:47.140Z,978.96
2023-03-02T00:38:47.029Z,978.99
2023-03-02T00:39:46.947Z,978.95
2023-03-02T00:40:46.875Z,978.95
2023-03-02T00:41:46.770Z,978.97
2023-03-02T00:42:46.683Z,979.01
2023-03-02T00:43:46.596Z,978.99
2023-03-02T00:44:46.514Z,979.00
2023-03-02T00:45:46.422Z,978.98
2023-03-02T00:46:46.430Z,978.98
2023-03-02T00:47:46.252Z,978.96
2023-03-02T00:48:46.171Z,978.93
2023-03-02T00:49:46.083Z,978.89
2023-03-02T00:50:45.992Z,978.89
2023-03-02T00:51:45.905Z,978.94
2023-03-02T00:52:45.824Z,978.97
2023-03-02T00:53:45.738Z,978.97
2023-03-02T00:54:45.641Z,978.93
2023-03-02T00:55:45.556Z,978.94
2023-03-02T00:56:45.477Z,978.92
2023-03-02T00:57:45.384Z,978.88
2023-03-02T00:58:45.298Z,978.90
2023-03-02T00:59:45.215Z,978.89
2023-03-02T01:00:45.123Z,978.89
2023-03-02T01:01:45.036Z,978.90
2023-03-02T01:02:45.071Z,978.89
2023-03-02T01:03:44.871Z,978.82
2023-03-02T01:04:44.794Z,978.83
2023-03-02T01:05:44.690Z,978.86
2023-03-02T01:06:44.609Z,978.79
2023-03-02T01:07:44.520Z,978.77
2023-03-02T01:08:44.541Z,978.75
2023-03-02T01:09:44.367Z,978.74
2023-03-02T01:10:44.272Z,978.79
2023-03-02T01:11:44.178Z,978.75
2023-03-02T01:12:44.089Z,978.73
2023-03-02T01:13:44.005Z,978.72
2023-03-02T01:14:43.924Z,978.70
2023-03-02T01:15:43.860Z,978.69
2023-03-02T01:16:43.752Z,978.70
2023-03-02T01:17:43.656Z,978.67
2023-03-02T01:18:43.586Z,978.64
2023-03-02T01:19:43.486Z,978.61
2023-03-02T01:20:43.405Z,978.60
2023-03-02T01:21:43.313Z,978.61
2023-03-02T01:22:43.224Z,978.54
2023-03-02T01:23:43.145Z,978.53
2023-03-02T01:24:43.058Z,978.52
2023-03-02T01:25:42.965Z,978.49
2023-03-02T01:26:42.878Z,978.47
2023-03-02T01:27:42.790Z,978.47
2023-03-02T01:28:42.714Z,978.44
2023-03-02T01:29:42.642Z,978.40
2023-03-02T01:30:42.540Z,978.41
2023-03-02T01:31:42.511Z,978.35
2023-03-02T01:32:42.361Z,978.35
2023-03-02T01:33:42.277Z,978.35
2023-03-02T01:34:42.205Z,978.34
2023-03-02T01:35:42.161Z,978.34
2023-03-02T01:36:42.012Z,978.33
2023-03-02T01:37:41.926Z,978.34
2023-03-02T01:38:41.882Z,978.29
2023-03-02T01:39:41.750Z,978.35
2023-03-02T01:40:41.781Z,978.32
2023-03-02T01:41:41.576Z,978.30
2023-03-02T01:42:41.509Z,978.29
2023-03-02T01:43:41.401Z,978.29
2023-03-02T01:44:41.317Z,978.27
2023-03-02T01:45:41.232Z,978.29
2023-03-02T01:46:41.147Z,978.29
2023-03-02T01:47:41.052Z,978.32
2023-03-02T01:48:40.971Z,978.29
2023-03-02T01:49:40.882Z,978.28
2023-03-02T01:50:40.793Z,978.32
2023-03-02T01:51:40.704Z,978.33
2023-03-02T01:52:40.625Z,978.29
2023-03-02T01:53:40.533Z,978.27
2023-03-02T01:54:40.443Z,978.24
2023-03-02T01:55:40.361Z,978.21
2023-03-02T01:56:40.370Z,978.22
2023-03-02T01:57:40.190Z,978.24
2023-03-02T01:58:40.098Z,978.22
2023-03-02T01:59:40.008Z,978.20
2023-03-02T02:00:39.996Z,978.23
2023-03-02T02:01:39.837Z,978.24
2023-03-02T02:02:39.748Z,978.24
2023-03-02T02:03:39.704Z,978.15
2023-03-02T02:04:39.575Z,978.17
2023-03-02T02:05:39.488Z,978.21
2023-03-02T02:06:39.409Z,978.19
2023-03-02T02:07:39.315Z,978.14
2023-03-02T02:08:39.242Z,978.11
2023-03-02T02:09:39.149Z,978.14
2023-03-02T02:10:39.054Z,978.16
2023-03-02T02:11:38.978Z,978.16
2023-03-02T02:12:38.882Z,978.15
2023-03-02T02:13:38.799Z,978.15
2023-03-02T02:14:38.709Z,978.14
2023-03-02T02:15:38.625Z,978.13
2023-03-02T02:16:38.539Z,978.09
2023-03-02T02:17:38.448Z,978.08
2023-03-02T02:18:38.361Z,978.08
2023-03-02T02:19:38.272Z,978.10
2023-03-02T02:20:38.191Z,978.06
2023-03-02T02:21:38.102Z,978.09
2023-03-02T02:22:38.019Z,978.02
2023-03-02T02:23:37.935Z,978.02
2023-03-02T02:24:37.839Z,978.04
2023-03-02T02:25:37.749Z,978.03
2023-03-02T02:26:37.665Z,978.10
2023-03-02T02:27:37.573Z,978.06
2023-03-02T02:28:37.498Z,978.08
2023-03-02T02:29:37.399Z,978.05
2023-03-02T02:30:37.316Z,978.00
2023-03-02T02:31:37.256Z,978.03
2023-03-02T02:32:37.190Z,977.99
2023-03-02T02:33:37.054Z,978.00
2023-03-02T02:34:36.963Z,978.00
2023-03-02T02:35:36.899Z,977.98
2023-03-02T02:36:36.793Z,977.92
2023-03-02T02:37:36.703Z,977.92
2023-03-02T02:38:36.621Z,977.89
2023-03-02T02:39:36.528Z,977.87
2023-03-02T02:40:36.443Z,977.88
2023-03-02T02:41:36.356Z,977.88
2023-03-02T02:42:36.275Z,977.86
2023-03-02T02:43:36.180Z,977.85
2023-03-02T02:44:36.105Z,977.89
2023-03-02T02:45:36.154Z,977.88
2023-03-02T02:46:35.918Z,977.89
2023-03-02T02:47:35.834Z,977.89
2023-03-02T02:48:35.747Z,977.90
2023-03-02T02:49:35.660Z,977.89
2023-03-02T02:50:35.572Z,977.87
2023-03-02T02:51:35.486Z,977.88
2023-03-02T02:52:35.396Z,977.88
2023-03-02T02:53:35.314Z,977.89
2023-03-02T02:54:35.231Z,977.85
2023-03-02T02:55:35.139Z,977.90
2023-03-02T02:56:35.300Z,977.92
2023-03-02T02:57:34.959Z,977.92
2023-03-02T02:58:34.873Z,977.91
2023-03-02T02:59:34.784Z,977.93
2023-03-02T03:00:34.705Z,977.92
2023-03-02T03:01:34.689Z,977.90
2023-03-02T03:02:34.523Z,977.87
2023-03-02T03:03:34.435Z,977.87
2023-03-02T03:04:34.430Z,977.92
2023-03-02T03:05:34.262Z,977.91
2023-03-02T03:06:34.394Z,977.94
2023-03-02T03:07:34.094Z,977.94
2023-03-02T03:08:34.002Z,977.95
2023-03-02T03:09:33.968Z,977.93
2023-03-02T03:10:33.833Z,977.96
2023-03-02T03:11:33.738Z,977.97
2023-03-02T03:12:33.654Z,977.97
2023-03-02T03:13:33.576Z,977.98
2023-03-02T03:14:33.491Z,978.00
2023-03-02T03:15:33.389Z,977.98
2023-03-02T03:16:33.714Z,977.96
2023-03-02T03:17:33.219Z,977.93
2023-03-02T03:18:33.134Z,977.91
2023-03-02T03:19:33.042Z,977.90
2023-03-02T03:20:32.957Z,977.96
2023-03-02T03:21:32.863Z,977.91
2023-03-02T03:22:32.791Z,977.89
2023-03-02T03:23:32.689Z,977.92
2023-03-02T03:24:32.609Z,977.93
2023-03-02T03:25:32.513Z,977.94
2023-03-02T03:26:32.769Z,977.89
2023-03-02T03:27:32.356Z,977.89
2023-03-02T03:28:32.250Z,977.90
2023-03-02T03:29:32.162Z,977.88
2023-03-02T03:30:32.104Z,977.90
2023-03-02T03:31:31.996Z,977.94
2023-03-02T03:32:31.990Z,977.92
2023-03-02T03:33:31.817Z,977.92
2023-03-02T03:34:31.727Z,977.94
2023-03-02T03:35:31.648Z,977.90
2023-03-02T03:36:31.931Z,977.90
2023-03-02T03:37:31.463Z,977.94
2023-03-02T03:38:31.395Z,977.93
2023-03-02T03:39:31.309Z,977.92
2023-03-02T03:40:31.202Z,977.93
2023-03-02T03:41:31.115Z,977.90
2023-03-02T03:42:31.031Z,977.93
2023-03-02T03:43:30.944Z,977.93
2023-03-02T03:44:30.848Z,978.00
2023-03-02T03:45:30.768Z,977.97
2023-03-02T03:46:30.965Z,977.97
2023-03-02T03:47:30.592Z,978.01
2023-03-02T03:48:30.525Z,978.00
2023-03-02T03:49:30.417Z,977.99
2023-03-02T03:50:30.329Z,978.00
2023-03-02T03:51:30.238Z,978.01
2023-03-02T03:52:30.148Z,977.97
2023-03-02T03:53:30.067Z,977.97
2023-03-02T03:54:29.976Z,977.97
2023-03-02T03:55:29.888Z,977.99
2023-03-02T03:56:29.948Z,977.96
2023-03-02T03:57:29.712Z,977.93
2023-03-02T03:58:29.674Z,977.91
2023-03-02T03:59:29.533Z,977.90
2023-03-02T04:00:29.445Z,977.95
2023-03-02T04:01:29.431Z,977.92
2023-03-02T04:02:29.329Z,977.91
2023-03-02T04:03:29.195Z,977.90
2023-03-02T04:04:29.108Z,977.92
2023-03-02T04:05:31.462Z,977.87
2023-03-02T04:06:28.930Z,977.88
2023-03-02T04:07:28.834Z,977.89
2023-03-02T04:08:28.748Z,977.91
2023-03-02T04:09:28.663Z,977.91
2023-03-02T04:10:28.570Z,977.91
2023-03-02T04:11:28.485Z,977.90
2023-03-02T04:12:28.396Z,977.87
2023-03-02T04:13:28.318Z,977.84
2023-03-02T04:14:28.237Z,977.80
2023-03-02T04:15:28.148Z,977.88
2023-03-02T04:16:28.050Z,977.81
2023-03-02T04:17:27.967Z,977.80
2023-03-02T04:18:27.873Z,977.81
2023-03-02T04:19:27.787Z,977.83
2023-03-02T04:20:27.704Z,977.85
2023-03-02T04:21:27.618Z,977.85
2023-03-02T04:22:27.526Z,977.84
2023-03-02T04:23:27.432Z,977.82
2023-03-02T04:24:27.342Z,977.80
2023-03-02T04:25:27.258Z,977.76
2023-03-02T04:26:27.170Z,977.80
2023-03-02T04:27:27.087Z,977.76
2023-03-02T04:28:26.994Z,977.79
2023-03-02T04:29:26.918Z,977.77
2023-03-02T04:30:26.831Z,977.77
2023-03-02T04:31:26.827Z,977.72
2023-03-02T04:32:26.689Z,977.76
2023-03-02T04:33:26.563Z,977.79
2023-03-02T04:34:26.480Z,977.77
2023-03-02T04:35:26.510Z,977.76
2023-03-02T04:36:26.306Z,977.78
2023-03-02T04:37:26.215Z,977.77
2023-03-02T04:38:26.130Z,977.79
2023-03-02T04:39:26.045Z,977.79
2023-03-02T04:40:25.955Z,977.81
2023-03-02T04:41:25.866Z,977.83
2023-03-02T04:42:25.779Z,977.78
2023-03-02T04:43:25.695Z,977.80
2023-03-02T04:44:25.610Z,977.82
2023-03-02T04:45:25.520Z,977.80
2023-03-02T04:46:25.446Z,977.74
2023-03-02T04:47:25.356Z,977.76
2023-03-02T04:48:25.256Z,977.80
2023-03-02T04:49:25.168Z,977.79
2023-03-02T04:50:25.084Z,977.75
2023-03-02T04:51:24.998Z,977.77
2023-03-02T04:52:24.920Z,977.75
2023-03-02T04:53:24.820Z,977.76
2023-03-02T04:54:24.738Z,977.75
2023-03-02T04:55:24.647Z,977.76
2023-03-02T04:56:24.558Z,977.78
2023-03-02T04:57:24.478Z,977.78
2023-03-02T04:58:24.382Z,977.78
2023-03-02T04:59:24.302Z,977.79
2023-03-02T05:00:24.209Z,977.78
2023-03-02T05:01:24.127Z,977.83
2023-03-02T05:02:24.071Z,977.79
2023-03-02T05:03:23.965Z,977.83
2023-03-02T05:04:23.888Z,977.82
2023-03-02T05:05:23.770Z,977.80
2023-03-02T05:06:23.682Z,977.83
2023-03-02T05:07:23.590Z,977.80
2023-03-02T05:08:23.510Z,977.81
2023-03-02T05:09:23.415Z,977.81
2023-03-02T05:10:23.327Z,977.81
2023-03-02T05:11:23.256Z,977.84
2023-03-02T05:12:23.161Z,977.85
2023-03-02T05:13:23.066Z,977.87
2023-03-02T05:14:22.976Z,977.86
2023-03-02T05:15:22.896Z,977.83
2023-03-02T05:16:22.835Z,977.85
2023-03-02T05:17:22.716Z,977.82
2023-03-02T05:18:22.624Z,977.81
2023-03-02T05:19:22.540Z,977.81
2023-03-02T05:20:22.453Z,977.81
2023-03-02T05:21:22.364Z,977.78
2023-03-02T05:22:22.276Z,977.73
2023-03-02T05:23:24.136Z,977.75
2023-03-02T05:24:22.101Z,977.75
2023-03-02T05:25:22.012Z,977.77
2023-03-02T05:26:21.925Z,977.74
2023-03-02T05:27:21.835Z,977.72
2023-03-02T05:28:21.751Z,977.73
2023-03-02T05:29:21.660Z,977.70
2023-03-02T05:30:21.578Z,977.73
2023-03-02T05:31:21.548Z,977.71
2023-03-02T05:32:21.442Z,977.68
2023-03-02T05:33:21.313Z,977.69
2023-03-02T05:34:21.231Z,977.69
2023-03-02T05:35:21.219Z,977.67
2023-03-02T05:36:23.189Z,977.69
2023-03-02T05:37:20.958Z,977.68
2023-03-02T05:38:20.876Z,977.69
2023-03-02T05:39:20.787Z,977.68
2023-03-02T05:40:20.724Z,977.64
2023-03-02T05:41:20.618Z,977.65
2023-03-02T05:42:20.525Z,977.67
2023-03-02T05:43:20.440Z,977.69
2023-03-02T05:44:20.348Z,977.70
2023-03-02T05:45:20.258Z,977.70
2023-03-02T05:46:22.004Z,977.68
2023-03-02T05:47:20.084Z,977.69
2023-03-02T05:48:19.994Z,977.70
2023-03-02T05:49:19.908Z,977.74
2023-03-02T05:50:19.817Z,977.73
2023-03-02T05:51:19.740Z,977.75
2023-03-02T05:52:19.645Z,977.69
2023-03-02T05:53:19.556Z,977.74
2023-03-02T05:54:19.466Z,977.73
2023-03-02T05:55:19.379Z,977.75
2023-03-02T05:56:19.288Z,977.77
2023-03-02T05:57:19.204Z,977.73
2023-03-02T05:58:19.113Z,977.81
2023-03-02T05:59:19.024Z,977.79
2023-03-02T06:00:18.937Z,977.83
2023-03-02T06:01:18.874Z,977.81
2023-03-02T06:02:18.788Z,977.80
2023-03-02T06:03:18.750Z,977.83
2023-03-02T06:04:18.587Z,977.80
2023-03-02T06:05:18.503Z,977.82
2023-03-02T06:06:18.412Z,977.83
2023-03-02T06:07:18.319Z,977.79
2023-03-02T06:08:18.241Z,977.79
2023-03-02T06:09:18.148Z,977.78
2023-03-02T06:10:18.060Z,977.77
2023-03-02T06:11:17.970Z,977.83
2023-03-02T06:12:17.993Z,977.81
2023-03-02T06:13:17.801Z,977.84
2023-03-02T06:14:17.771Z,977.84
2023-03-02T06:15:17.630Z,977.85
2023-03-02T06:16:17.599Z,977.86
2023-03-02T06:17:17.447Z,977.89
2023-03-02T06:18:17.365Z,977.88
2023-03-02T06:19:17.269Z,977.89
2023-03-02T06:20:17.181Z,977.90
2023-03-02T06:21:17.092Z,977.85
2023-03-02T06:22:17.018Z,977.88
2023-03-02T06:23:16.914Z,977.94
2023-03-02T06:24:16.829Z,978.00
2023-03-02T06:25:16.781Z,977.97
2023-03-02T06:26:16.669Z,977.96
2023-03-02T06:27:16.582Z,977.99
2023-03-02T06:28:16.492Z,977.98
2023-03-02T06:29:16.400Z,978.01
2023-03-02T06:30:16.325Z,978.02
2023-03-02T06:31:16.263Z,977.98
2023-03-02T06:32:16.319Z,978.03
2023-03-02T06:33:16.055Z,978.03
2023-03-02T06:34:15.959Z,978.02
2023-03-02T06:35:15.981Z,978.06
2023-03-02T06:36:15.816Z,978.06
2023-03-02T06:37:15.694Z,978.08
2023-03-02T06:38:15.678Z,978.07
2023-03-02T06:39:15.524Z,978.09
2023-03-02T06:40:15.437Z,978.10
2023-03-02T06:41:15.363Z,978.11
2023-03-02T06:42:15.271Z,978.12
2023-03-02T06:43:15.174Z,978.10
2023-03-02T06:44:15.155Z,978.10
2023-03-02T06:45:14.992Z,978.08
2023-03-02T06:46:14.949Z,978.09
2023-03-02T06:47:14.851Z,978.07
2023-03-02T06:48:14.731Z,978.06
2023-03-02T06:49:14.651Z,978.08
2023-03-02T06:50:14.558Z,978.06
2023-03-02T06:51:14.459Z,978.09
2023-03-02T06:52:14.373Z,978.07
2023-03-02T06:53:14.288Z,978.06
2023-03-02T06:54:14.201Z,978.04
2023-03-02T06:55:14.113Z,978.07
2023-03-02T06:56:14.028Z,978.07
2023-03-02T06:57:13.939Z,978.09
2023-03-02T06:58:13.854Z,978.04
2023-03-02T06:59:13.760Z,978.10
2023-03-02T07:00:13.724Z,978.06
2023-03-02T07:01:13.625Z,978.08
2023-03-02T07:02:13.496Z,978.08
2023-03-02T07:03:13.496Z,978.09
2023-03-02T07:04:13.324Z,978.07
2023-03-02T07:05:13.234Z,978.07
2023-03-02T07:06:13.146Z,978.09
2023-03-02T07:07:13.057Z,978.07
2023-03-02T07:08:12.971Z,978.06
2023-03-02T07:09:12.882Z,978.03
2023-03-02T07:10:12.804Z,978.08
2023-03-02T07:11:12.716Z,978.07
2023-03-02T07:12:12.620Z,978.11
2023-03-02T07:13:12.533Z,978.06
2023-03-02T07:14:12.456Z,978.11
2023-03-02T07:15:12.449Z,978.07
2023-03-02T07:16:12.271Z,978.08
2023-03-02T07:17:12.179Z,978.11
2023-03-02T07:18:12.093Z,978.10
2023-03-02T07:19:12.004Z,978.08
2023-03-02T07:20:11.919Z,978.15
2023-03-02T07:21:11.831Z,978.15
2023-03-02T07:22:11.746Z,978.17
2023-03-02T07:23:11.664Z,978.16
2023-03-02T07:24:11.572Z,978.15
2023-03-02T07:25:11.488Z,978.15
2023-03-02T07:26:11.393Z,978.18
2023-03-02T07:27:11.305Z,978.18
2023-03-02T07:28:11.220Z,978.20
2023-03-02T07:29:11.132Z,978.22
2023-03-02T07:30:11.046Z,978.20
2023-03-02T07:31:10.988Z,978.16
2023-03-02T07:32:12.608Z,978.15
2023-03-02T07:33:10.807Z,978.12
2023-03-02T07:34:10.698Z,978.12
2023-03-02T07:35:10.610Z,978.13
2023-03-02T07:36:10.533Z,978.15
2023-03-02T07:37:10.440Z,978.12
2023-03-02T07:38:10.353Z,978.15
2023-03-02T07:39:10.272Z,978.15
2023-03-02T07:40:10.181Z,978.14
2023-03-02T07:41:10.101Z,978.11
2023-03-02T07:42:10.011Z,978.11
2023-03-02T07:43:09.928Z,978.08
2023-03-02T07:44:09.834Z,978.09
2023-03-02T07:45:09.748Z,978.13
2023-03-02T07:46:09.680Z,978.13
2023-03-02T07:47:09.575Z,978.15
2023-03-02T07:48:09.493Z,978.15
2023-03-02T07:49:09.408Z,978.14
2023-03-02T07:50:09.322Z,978.13
2023-03-02T07:51:09.233Z,978.14
2023-03-02T07:52:09.156Z,978.13
2023-03-02T07:53:09.060Z,978.15
2023-03-02T07:54:08.973Z,978.12
2023-03-02T07:55:08.883Z,978.09
2023-03-02T07:56:08.800Z,978.10
2023-03-02T07:57:08.726Z,978.11
2023-03-02T07:58:08.626Z,978.10
2023-03-02T07:59:08.546Z,978.07
2023-03-02T08:00:08.455Z,978.07
2023-03-02T08:01:08.379Z,978.10
2023-03-02T08:02:08.361Z,978.13
2023-03-02T08:03:08.220Z,978.14
2023-03-02T08:04:08.135Z,978.13
2023-03-02T08:05:08.028Z,978.14
2023-03-02T08:06:07.962Z,978.13
2023-03-02T08:07:07.863Z,978.14
2023-03-02T08:08:07.773Z,978.14
2023-03-02T08:09:07.687Z,978.17
2023-03-02T08:10:07.601Z,978.15
2023-03-02T08:11:07.517Z,978.12
2023-03-02T08:12:07.434Z,978.15
2023-03-02T08:13:07.346Z,978.13
2023-03-02T08:14:07.267Z,978.18
2023-03-02T08:15:07.182Z,978.14
2023-03-02T08:16:07.125Z,978.16
2023-03-02T08:17:07.036Z,978.16
2023-03-02T08:18:06.923Z,978.14
2023-03-02T08:19:06.843Z,978.16
2023-03-02T08:20:06.772Z,978.17
2023-03-02T08:21:06.672Z,978.23
2023-03-02T08:22:06.590Z,978.24
2023-03-02T08:23:06.503Z,978.25
2023-03-02T08:24:06.428Z,978.25
2023-03-02T08:25:06.338Z,978.22
2023-03-02T08:26:06.253Z,978.26
2023-03-02T08:27:06.165Z,978.22
2023-03-02T08:28:06.108Z,978.22
2023-03-02T08:29:06.006Z,978.24
2023-03-02T08:30:05.916Z,978.20
2023-03-02T08:31:05.848Z,978.22
2023-03-02T08:32:05.953Z,978.21
2023-03-02T08:33:07.217Z,978.17
2023-03-02T08:34:05.586Z,978.17
2023-03-02T08:35:05.498Z,978.19
2023-03-02T08:36:05.471Z,978.18
2023-03-02T08:37:05.328Z,978.19
2023-03-02T08:38:05.255Z,978.14
2023-03-02T08:39:05.165Z,978.17
2023-03-02T08:40:05.087Z,978.18
2023-03-02T08:41:04.995Z,978.15
2023-03-02T08:42:04.920Z,978.14
2023-03-02T08:43:06.740Z,978.13
2023-03-02T08:44:04.745Z,978.13
2023-03-02T08:45:04.670Z,978.14
2023-03-02T08:46:04.609Z,978.12
2023-03-02T08:47:04.610Z,978.12
2023-03-02T08:48:04.411Z,978.16
2023-03-02T08:49:04.328Z,978.15
2023-03-02T08:50:04.241Z,978.08
2023-03-02T08:51:04.168Z,978.14
2023-03-02T08:52:04.082Z,978.12
2023-03-02T08:53:04.010Z,978.12
2023-03-02T08:54:03.910Z,978.05
2023-03-02T08:55:04.432Z,978.08
2023-03-02T08:56:03.759Z,978.08
2023-03-02T08:57:03.697Z,978.09
2023-03-02T08:58:03.578Z,978.11
2023-03-02T08:59:03.508Z,978.08
2023-03-02T09:00:03.413Z,978.04
2023-03-02T09:01:03.369Z,978.05
2023-03-02T09:02:03.245Z,978.05
2023-03-02T09:03:03.167Z,978.03
2023-03-02T09:04:03.157Z,978.04
2023-03-02T09:05:03.012Z,978.03
2023-03-02T09:06:02.916Z,978.02
2023-03-02T09:07:02.924Z,978.00
2023-03-02T09:08:02.765Z,978.00
2023-03-02T09:09:02.673Z,978.00
2023-03-02T09:10:02.591Z,977.98
2023-03-02T09:11:02.506Z,977.96
2023-03-02T09:12:02.428Z,977.96
2023-03-02T09:13:02.341Z,977.92
2023-03-02T09:14:02.269Z,977.94
2023-03-02T09:15:02.203Z,977.97
2023-03-02T09:16:02.112Z,977.90
2023-03-02T09:17:02.079Z,977.93
2023-03-02T09:18:01.933Z,977.95
2023-03-02T09:19:01.854Z,977.99
2023-03-02T09:20:01.770Z,977.94
2023-03-02T09:21:01.702Z,977.98
2023-03-02T09:22:01.617Z,978.01
2023-03-02T09:23:01.527Z,978.01
2023-03-02T09:24:01.445Z,977.96
2023-03-02T09:25:01.371Z,977.96
2023-03-02T09:26:01.285Z,977.95
2023-03-02T09:27:01.253Z,977.97
2023-03-02T09:28:01.121Z,977.99
2023-03-02T09:29:01.041Z,977.99
2023-03-02T09:30:00.960Z,977.98
2023-03-02T09:31:00.882Z,977.97
2023-03-02T09:32:00.832Z,977.99
2023-03-02T09:33:00.899Z,978.00
2023-03-02T09:34:00.637Z,978.02
2023-03-02T09:35:00.553Z,978.02
2023-03-02T09:36:00.471Z,978.00
2023-03-02T09:37:00.426Z,977.98
2023-03-02T09:38:00.352Z,978.01
2023-03-02T09:39:00.233Z,977.99
2023-03-02T09:40:00.183Z,978.03
2023-03-02T09:41:00.099Z,978.02
2023-03-02T09:41:59.988Z,978.02
2023-03-02T09:42:59.908Z,978.00
2023-03-02T09:44:00.248Z,977.88
2023-03-02T09:44:59.748Z,977.87
2023-03-02T09:45:59.741Z,977.89
2023-03-02T09:46:59.644Z,977.91
2023-03-02T09:47:59.504Z,977.91
2023-03-02T09:48:59.424Z,977.88
2023-03-02T09:49:59.344Z,977.88
2023-03-02T09:50:59.265Z,977.90
2023-03-02T09:51:59.186Z,977.94
2023-03-02T09:52:59.111Z,977.93
2023-03-02T09:53:59.059Z,977.93
2023-03-02T09:54:58.952Z,977.91
2023-03-02T09:55:58.917Z,977.92
2023-03-02T09:56:58.908Z,977.90
2023-03-02T09:57:58.702Z,977.93
2023-03-02T09:58:58.624Z,977.87
2023-03-02T10:00:06.616Z,977.92
2023-03-02T10:00:58.470Z,977.96
2023-03-02T10:01:58.382Z,977.93
2023-03-02T10:03:05.112Z,977.90
2023-03-02T10:03:58.352Z,977.88
2023-03-02T10:04:58.152Z,977.90
2023-03-02T10:05:58.066Z,977.90
2023-03-02T10:06:58.030Z,977.92
2023-03-02T10:07:59.377Z,977.87
2023-03-02T10:08:57.852Z,977.86
2023-03-02T10:09:57.743Z,977.86
2023-03-02T10:10:57.664Z,977.82
2023-03-02T10:11:57.592Z,977.86
2023-03-02T10:12:57.513Z,977.83
2023-03-02T10:13:57.425Z,977.83
2023-03-02T10:14:57.344Z,977.82
2023-03-02T10:15:57.325Z,977.80
2023-03-02T10:16:57.247Z,977.81
2023-03-02T10:17:57.109Z,977.80
2023-03-02T10:18:57.105Z,977.82
2023-03-02T10:19:56.952Z,977.84
2023-03-02T10:20:56.870Z,977.79
2023-03-02T10:21:56.790Z,977.77
2023-03-02T10:22:56.712Z,977.80
2023-03-02T10:23:56.634Z,977.81
2023-03-02T10:24:56.550Z,977.81
2023-03-02T10:25:56.472Z,977.84
2023-03-02T10:26:56.391Z,977.79
2023-03-02T10:27:56.376Z,977.82
2023-03-02T10:28:56.231Z,977.81
2023-03-02T10:29:56.155Z,977.82
2023-03-02T10:30:56.086Z,977.80
2023-03-02T10:31:56.030Z,977.83
2023-03-02T10:32:55.914Z,977.82
2023-03-02T10:33:55.831Z,977.78
2023-03-02T10:34:55.756Z,977.79
2023-03-02T10:35:55.805Z,977.77
2023-03-02T10:36:55.595Z,977.76
2023-03-02T10:37:55.513Z,977.81
2023-03-02T10:38:55.436Z,977.83
2023-03-02T10:39:55.360Z,977.77
2023-03-02T10:40:55.281Z,977.81
2023-03-02T10:41:55.225Z,977.78
2023-03-02T10:42:55.127Z,977.79
2023-03-02T10:43:55.043Z,977.73
2023-03-02T10:44:54.962Z,977.77
2023-03-02T10:45:54.926Z,977.78
2023-03-02T10:46:54.803Z,977.80
2023-03-02T10:47:54.722Z,977.79
2023-03-02T10:48:54.655Z,977.81
2023-03-02T10:49:54.567Z,977.79
2023-03-02T10:50:54.501Z,977.77
2023-03-02T10:51:54.414Z,977.74
2023-03-02T10:52:59.908Z,977.72
2023-03-02T10:53:54.252Z,977.71
2023-03-02T10:54:54.169Z,977.71
2023-03-02T10:55:54.107Z,977.70
2023-03-02T10:56:54.014Z,977.70
2023-03-02T10:57:53.936Z,977.67
2023-03-02T10:58:56.241Z,977.68
2023-03-02T10:59:53.791Z,977.69
2023-03-02T11:00:53.694Z,977.70
2023-03-02T11:01:53.663Z,977.72
2023-03-02T11:02:53.540Z,977.68
2023-03-02T11:03:53.458Z,977.71
2023-03-02T11:04:55.634Z,977.70
2023-03-02T11:05:53.300Z,977.69
2023-03-02T11:06:54.484Z,977.64
2023-03-02T11:07:53.142Z,977.60
2023-03-02T11:08:53.065Z,977.61
2023-03-02T11:09:52.988Z,977.58
2023-03-02T11:10:54.184Z,977.56
2023-03-02T11:11:52.903Z,977.55
2023-03-02T11:12:52.752Z,977.59
2023-03-02T11:13:52.667Z,977.57
2023-03-02T11:14:52.593Z,977.56
2023-03-02T11:15:52.601Z,977.53
2023-03-02T11:16:52.432Z,977.57
2023-03-02T11:17:52.351Z,977.56
2023-03-02T11:18:52.278Z,977.59
2023-03-02T11:19:52.196Z,977.54
2023-03-02T11:20:52.122Z,977.54
2023-03-02T11:21:52.037Z,977.49
2023-03-02T11:22:51.963Z,977.53
2023-03-02T11:23:51.882Z,977.48
2023-03-02T11:24:51.807Z,977.51
2023-03-02T11:25:51.724Z,977.52
2023-03-02T11:26:51.650Z,977.54
2023-03-02T11:27:51.566Z,977.51
2023-03-02T11:28:51.489Z,977.44
2023-03-02T11:29:51.410Z,977.46
2023-03-02T11:30:51.335Z,977.47
2023-03-02T11:31:51.441Z,977.46
2023-03-02T11:32:51.215Z,977.50
2023-03-02T11:33:51.140Z,977.46
2023-03-02T11:34:51.036Z,977.46
2023-03-02T11:35:51.071Z,977.49
2023-03-02T11:36:50.864Z,977.54
2023-03-02T11:37:50.780Z,977.51
2023-03-02T11:38:50.719Z,977.54
2023-03-02T11:39:55.418Z,977.52
2023-03-02T11:40:50.550Z,977.49
2023-03-02T11:41:50.476Z,977.50
2023-03-02T11:42:50.399Z,977.49
2023-03-02T11:43:50.321Z,977.46
2023-03-02T11:44:50.240Z,977.49
2023-03-02T11:45:50.163Z,977.47
2023-03-02T11:46:50.119Z,977.42
2023-03-02T11:47:57.608Z,977.44
2023-03-02T11:48:49.922Z,977.40
2023-03-02T11:49:49.845Z,977.36
2023-03-02T11:50:49.768Z,977.38
2023-03-02T11:51:57.901Z,977.27
2023-03-02T11:52:49.616Z,977.35
2023-03-02T11:53:49.595Z,977.35
2023-03-02T11:54:49.454Z,977.28
2023-03-02T11:55:49.382Z,977.31
2023-03-02T11:56:49.297Z,977.30
2023-03-02T11:57:49.231Z,977.27
2023-03-02T11:58:49.139Z,977.33
2023-03-02T11:59:49.059Z,977.29
2023-03-02T12:00:48.985Z,977.25
2023-03-02T12:01:48.969Z,977.27
2023-03-02T12:02:48.824Z,977.27
2023-03-02T12:03:48.769Z,977.22
2023-03-02T12:04:48.674Z,977.27
2023-03-02T12:05:48.651Z,977.22
2023-03-02T12:06:48.513Z,977.22
2023-03-02T12:07:48.442Z,977.19
2023-03-02T12:08:48.398Z,977.21
2023-03-02T12:09:48.275Z,977.17
2023-03-02T12:10:48.198Z,977.22
2023-03-02T12:11:48.119Z,977.21
2023-03-02T12:12:48.059Z,977.16
2023-03-02T12:13:47.963Z,977.19
2023-03-02T12:14:47.886Z,977.16
2023-03-02T12:15:47.804Z,977.16
2023-03-02T12:16:47.853Z,977.15
2023-03-02T12:17:47.669Z,977.14
2023-03-02T12:18:47.580Z,977.10
2023-03-02T12:19:47.504Z,977.14
2023-03-02T12:20:47.419Z,977.15
2023-03-02T12:21:47.339Z,977.10
2023-03-02T12:22:47.262Z,977.09
2023-03-02T12:23:47.181Z,977.09
2023-03-02T12:24:47.104Z,977.12
2023-03-02T12:25:47.025Z,977.11
2023-03-02T12:26:46.947Z,977.14
2023-03-02T12:27:46.868Z,977.14